Agia Marina — SX5375 — position and weather

sailwx.info

Track history (hours):
 
Tides and Currents Weather Stations Pressure Air Temp Water Temp Dewpoint Dewpoint Depression Visibility Wind Speed Wind Dir Waves Ship Positions

Agia Marina

Last reported at 2015-Mar-01 18:34 UTC. Time now 2015-Mar-01 19:24 UTC.
Position N 37°10' E 025°16'.

Length 59 m; draft 2.5 m.

Type: Cargo ship. MMSI: 237042500.

Date/timePositionNaut miles runAvg speedWind from/ knotsBaromVisibWave heightAir tempDewpointWater temp
2015-Mar-01 18:34N 37°10' E 025°16'6 6.4
2015-Mar-01 17:33N 37°06' E 025°22'0 0.3
2015-Mar-01 16:33N 37°06' E 025°22'1 0.5
2015-Mar-01 15:33N 37°06' E 025°22'2 1.9
2015-Mar-01 14:33N 37°08' E 025°23'7 6.8
2015-Mar-01 13:33N 37°12' E 025°30'7 6.3
2015-Mar-01 12:23N 37°10' E 025°38'6 7.3
2015-Mar-01 11:33N 37°05' E 025°43'7 7.2
2015-Mar-01 10:32N 37°00' E 025°50'7 6.7
2015-Mar-01 09:33N 36°55' E 025°56'2 0.1
2015-Feb-28 17:32N 36°57' E 025°58'  
Track history (hours):
 
Tides and Currents Weather Stations Pressure Air Temp Water Temp Dewpoint Dewpoint Depression Visibility Wind Speed Wind Dir Waves Ship Positions

Agia Marina

Last reported at 2015-Mar-01 18:34 UTC. Time now 2015-Mar-01 19:24 UTC.
Position N 37°10' E 025°16'.

Length 59 m; draft 2.5 m.

Type: Cargo ship. MMSI: 237042500.

Date/timePositionNaut miles runAvg speedWind from/ knotsBaromVisibWave heightAir tempDewpointWater temp
2015-Mar-01 18:34N 37°10' E 025°16'6 6.4
2015-Mar-01 17:33N 37°06' E 025°22'0 0.3
2015-Mar-01 16:33N 37°06' E 025°22'1 0.5
2015-Mar-01 15:33N 37°06' E 025°22'2 1.9
2015-Mar-01 14:33N 37°08' E 025°23'7 6.8
2015-Mar-01 13:33N 37°12' E 025°30'7 6.3
2015-Mar-01 12:23N 37°10' E 025°38'6 7.3
2015-Mar-01 11:33N 37°05' E 025°43'7 7.2
2015-Mar-01 10:32N 37°00' E 025°50'7 6.7
2015-Mar-01 09:33N 36°55' E 025°56'2 0.1
2015-Feb-28 17:32N 36°57' E 025°58'  

Dump ship's entire track history